createdAt,value
2017-08-21T00:01:31.656Z,3.27
2017-08-21T00:03:59.216Z,2.70
2017-08-21T00:06:26.755Z,2.83
2017-08-21T00:08:54.294Z,2.60
2017-08-21T00:11:21.813Z,2.93
2017-08-21T00:13:49.358Z,3.40
2017-08-21T00:16:16.890Z,3.37
2017-08-21T00:18:44.432Z,2.70
2017-08-21T00:21:11.963Z,2.63
2017-08-21T00:23:39.503Z,2.60
2017-08-21T00:26:07.037Z,2.30
2017-08-21T00:28:34.580Z,2.93
2017-08-21T00:31:02.108Z,3.00
2017-08-21T00:33:29.650Z,2.87
2017-08-21T00:35:57.233Z,2.83
2017-08-21T00:38:24.771Z,2.73
2017-08-21T00:40:52.298Z,2.83
2017-08-21T00:43:19.856Z,2.80
2017-08-21T00:45:47.387Z,3.03
2017-08-21T00:48:14.939Z,3.37
2017-08-21T00:50:42.477Z,3.30
2017-08-21T00:53:10.018Z,2.70
2017-08-21T00:55:37.572Z,2.43
2017-08-21T00:58:05.114Z,2.80
2017-08-21T01:00:32.676Z,2.73
2017-08-21T01:03:00.208Z,2.47
2017-08-21T01:05:27.758Z,2.70
2017-08-21T01:07:55.292Z,2.37
2017-08-21T01:10:22.839Z,2.70
2017-08-21T01:12:50.362Z,2.77
2017-08-21T01:15:17.894Z,3.10
2017-08-21T01:17:45.422Z,2.93
2017-08-21T01:20:12.972Z,2.70
2017-08-21T01:22:40.491Z,3.10
2017-08-21T01:25:08.030Z,3.03
2017-08-21T01:27:35.581Z,3.10
2017-08-21T01:30:03.125Z,3.20
2017-08-21T01:32:30.645Z,2.90
2017-08-21T01:34:58.182Z,3.00
2017-08-21T01:37:25.707Z,2.67
2017-08-21T01:39:53.230Z,2.80
2017-08-21T01:42:21.534Z,2.77
2017-08-21T01:44:49.050Z,2.70
2017-08-21T01:47:16.663Z,3.13
2017-08-21T01:49:44.200Z,3.10
2017-08-21T01:52:12.503Z,3.40
2017-08-21T01:54:40.040Z,3.07
2017-08-21T01:57:07.596Z,3.00
2017-08-21T01:59:35.126Z,3.13
2017-08-21T02:02:02.675Z,2.90
2017-08-21T02:04:30.202Z,2.53
2017-08-21T02:06:57.743Z,2.83
2017-08-21T02:09:25.286Z,2.50
2017-08-21T02:11:53.591Z,3.60
2017-08-21T02:14:21.111Z,3.90
2017-08-21T02:16:48.664Z,3.30
2017-08-21T02:19:16.195Z,4.23
2017-08-21T02:21:43.732Z,3.50
2017-08-21T02:24:11.267Z,4.30
2017-08-21T02:26:39.554Z,3.77
2017-08-21T02:29:07.107Z,3.80
2017-08-21T02:31:34.632Z,3.53
2017-08-21T02:34:02.180Z,4.30
2017-08-21T02:36:29.707Z,3.97
2017-08-21T02:38:57.268Z,4.13
2017-08-21T02:41:24.811Z,3.90
2017-08-21T02:43:52.354Z,3.70
2017-08-21T02:46:19.878Z,3.87
2017-08-21T02:48:47.423Z,3.40
2017-08-21T02:51:14.952Z,3.37
2017-08-21T02:53:42.508Z,4.17
2017-08-21T02:56:10.030Z,4.37
2017-08-21T02:58:37.567Z,3.70
2017-08-21T03:01:05.092Z,3.60
2017-08-21T03:03:32.642Z,3.70
2017-08-21T03:06:00.925Z,3.57
2017-08-21T03:08:29.980Z,4.20
2017-08-21T03:10:57.511Z,3.40
2017-08-21T03:13:25.058Z,3.57
2017-08-21T03:15:52.579Z,3.53
2017-08-21T03:18:20.131Z,4.03
2017-08-21T03:20:47.664Z,4.60
2017-08-21T03:23:15.225Z,5.20
2017-08-21T03:25:42.751Z,4.20
2017-08-21T03:28:10.270Z,3.57
2017-08-21T03:30:37.821Z,3.80
2017-08-21T03:33:05.365Z,4.17
2017-08-21T03:35:32.910Z,3.90
2017-08-21T03:38:00.439Z,4.00
2017-08-21T03:40:27.988Z,4.23
2017-08-21T03:42:55.511Z,3.83
2017-08-21T03:45:23.067Z,4.27
2017-08-21T03:47:50.605Z,4.33
2017-08-21T03:50:18.165Z,4.23
2017-08-21T03:52:45.695Z,3.23
2017-08-21T03:55:13.265Z,3.60
2017-08-21T03:57:40.799Z,4.23
2017-08-21T04:00:08.334Z,3.73
2017-08-21T04:02:35.859Z,4.70
2017-08-21T04:05:03.402Z,4.40
2017-08-21T04:07:30.926Z,4.83
2017-08-21T04:09:58.479Z,4.97
2017-08-21T04:12:26.016Z,5.13
2017-08-21T04:14:53.554Z,4.20
2017-08-21T04:17:21.083Z,4.60
2017-08-21T04:19:48.635Z,4.53
2017-08-21T04:22:16.172Z,4.63
2017-08-21T04:24:43.733Z,5.23
2017-08-21T04:27:11.258Z,4.30
2017-08-21T04:29:38.810Z,4.50
2017-08-21T04:32:07.495Z,4.83
2017-08-21T04:34:35.029Z,3.90
2017-08-21T04:37:02.581Z,5.20
2017-08-21T04:39:30.112Z,4.60
2017-08-21T04:41:57.675Z,3.90
2017-08-21T04:44:25.206Z,4.43
2017-08-21T04:46:52.762Z,4.47
2017-08-21T04:49:20.287Z,4.50
2017-08-21T04:51:47.826Z,4.23
2017-08-21T04:54:15.355Z,5.10
2017-08-21T04:56:42.899Z,4.13
2017-08-21T04:59:10.438Z,4.33
2017-08-21T05:01:38.010Z,4.87
2017-08-21T05:04:05.535Z,4.60
2017-08-21T05:06:33.079Z,4.60
2017-08-21T05:09:00.606Z,5.17
2017-08-21T05:11:28.157Z,5.20
2017-08-21T05:13:55.699Z,5.10
2017-08-21T05:16:23.218Z,4.93
2017-08-21T05:18:50.760Z,5.17
2017-08-21T05:21:18.292Z,5.00
2017-08-21T05:23:45.835Z,5.10
2017-08-21T05:26:13.368Z,4.83
2017-08-21T05:28:40.907Z,5.13
2017-08-21T05:31:08.442Z,5.77
2017-08-21T05:33:36.028Z,5.60
2017-08-21T05:36:03.565Z,6.50
2017-08-21T05:38:31.115Z,6.50
2017-08-21T05:40:58.638Z,5.70
2017-08-21T05:43:26.186Z,6.10
2017-08-21T05:45:53.719Z,6.00
2017-08-21T05:48:21.275Z,5.47
2017-08-21T05:50:48.804Z,5.53
2017-08-21T05:53:16.412Z,4.57
2017-08-21T05:55:43.949Z,4.93
2017-08-21T05:58:11.499Z,5.20
2017-08-21T06:00:39.027Z,5.90
2017-08-21T06:03:06.570Z,5.07
2017-08-21T06:05:35.019Z,5.23
2017-08-21T06:08:02.538Z,5.83
2017-08-21T06:10:30.096Z,6.00
2017-08-21T06:12:57.632Z,6.07
2017-08-21T06:15:25.171Z,5.67
2017-08-21T06:17:52.699Z,6.60
2017-08-21T06:20:20.269Z,5.23
2017-08-21T06:22:47.808Z,5.67
2017-08-21T06:25:15.365Z,5.33
2017-08-21T06:27:42.903Z,5.87
2017-08-21T06:30:10.461Z,5.00
2017-08-21T06:32:37.984Z,5.80
2017-08-21T06:35:05.531Z,5.90
2017-08-21T06:37:33.053Z,4.97
2017-08-21T06:40:01.360Z,6.10
2017-08-21T06:42:28.883Z,5.83
2017-08-21T06:44:56.435Z,4.87
2017-08-21T06:47:23.958Z,5.17
2017-08-21T06:49:51.504Z,5.90
2017-08-21T06:52:19.027Z,5.10
2017-08-21T06:54:46.584Z,6.03
2017-08-21T06:57:14.116Z,4.80
2017-08-21T06:59:41.643Z,4.70
2017-08-21T07:02:09.174Z,5.20
2017-08-21T07:04:37.482Z,5.70
2017-08-21T07:07:05.018Z,4.57
2017-08-21T07:09:32.547Z,4.37
2017-08-21T07:12:00.094Z,4.40
2017-08-21T07:14:27.623Z,6.10
2017-08-21T07:16:55.171Z,3.83
2017-08-21T07:19:22.697Z,4.53
2017-08-21T07:21:50.248Z,4.73
2017-08-21T07:24:17.776Z,4.20
2017-08-21T07:26:45.331Z,3.40
2017-08-21T07:29:12.855Z,4.00
2017-08-21T07:31:40.395Z,3.37
2017-08-21T07:34:07.923Z,4.20
2017-08-21T07:36:36.181Z,3.50
2017-08-21T07:39:03.706Z,5.23
2017-08-21T07:41:31.222Z,3.93
2017-08-21T07:43:58.767Z,5.80
2017-08-21T07:46:26.297Z,4.73
2017-08-21T07:48:53.842Z,3.80
2017-08-21T07:51:22.151Z,4.80
2017-08-21T07:53:49.703Z,4.57
2017-08-21T07:56:17.222Z,5.70
2017-08-21T07:58:44.769Z,4.20
2017-08-21T08:01:12.291Z,3.63
2017-08-21T08:03:39.840Z,3.30
2017-08-21T08:06:07.380Z,3.07
2017-08-21T08:08:35.692Z,5.30
2017-08-21T08:11:03.226Z,3.53
2017-08-21T08:13:30.771Z,3.60
2017-08-21T08:15:58.309Z,3.30
2017-08-21T08:18:25.875Z,2.73
2017-08-21T08:20:54.765Z,3.00
2017-08-21T08:23:23.063Z,2.67
2017-08-21T08:25:51.383Z,2.97
2017-08-21T08:28:18.921Z,3.73
2017-08-21T08:30:47.812Z,3.60
2017-08-21T08:33:16.692Z,2.67
2017-08-21T08:35:45.007Z,2.60
2017-08-21T08:38:12.531Z,2.97
2017-08-21T08:40:40.857Z,2.67
2017-08-21T08:43:08.397Z,3.00
2017-08-21T08:45:36.032Z,2.70
2017-08-21T08:48:04.344Z,2.80
2017-08-21T08:50:33.229Z,2.53
2017-08-21T08:53:02.115Z,2.37
2017-08-21T08:55:29.673Z,2.60
2017-08-21T08:57:58.337Z,2.43
2017-08-21T09:00:25.899Z,3.17
2017-08-21T09:02:54.570Z,3.80
2017-08-21T09:05:22.087Z,3.53
2017-08-21T09:07:49.653Z,3.50
2017-08-21T09:10:17.182Z,3.57
2017-08-21T09:12:44.734Z,2.83
2017-08-21T09:15:12.266Z,3.70
2017-08-21T09:17:39.820Z,3.03
2017-08-21T09:20:07.376Z,2.43
2017-08-21T09:22:34.932Z,3.23
2017-08-21T09:25:02.500Z,2.27
2017-08-21T09:27:30.044Z,2.83
2017-08-21T09:29:58.703Z,2.77
2017-08-21T09:32:26.247Z,3.67
2017-08-21T09:34:53.774Z,2.67
2017-08-21T09:37:21.318Z,2.23
2017-08-21T09:39:48.852Z,2.80
2017-08-21T09:42:16.391Z,3.00
2017-08-21T09:44:43.934Z,2.40
2017-08-21T09:47:12.252Z,2.63
2017-08-21T09:49:39.787Z,3.93
2017-08-21T09:52:07.335Z,3.30
2017-08-21T09:54:35.647Z,3.13
2017-08-21T09:57:03.201Z,2.80
2017-08-21T09:59:30.755Z,2.30
2017-08-21T10:01:58.310Z,2.63
2017-08-21T10:04:26.980Z,2.60
2017-08-21T10:06:55.897Z,2.80
2017-08-21T10:09:23.426Z,2.40
2017-08-21T10:11:50.974Z,2.30
2017-08-21T10:14:18.531Z,1.97
2017-08-21T10:16:46.065Z,2.20
2017-08-21T10:19:13.606Z,2.20
2017-08-21T10:21:41.153Z,2.27
2017-08-21T10:24:08.713Z,2.67
2017-08-21T10:26:36.390Z,2.37
2017-08-21T10:29:03.953Z,2.63
2017-08-21T10:31:31.488Z,2.30
2017-08-21T10:33:59.040Z,2.87
2017-08-21T10:36:26.575Z,1.87
2017-08-21T10:38:54.131Z,2.20
2017-08-21T10:41:21.660Z,2.22
2017-08-21T10:43:49.222Z,2.50
2017-08-21T10:46:16.748Z,2.43
2017-08-21T10:48:44.301Z,2.00
2017-08-21T10:51:11.847Z,2.03
2017-08-21T10:53:39.390Z,1.87
2017-08-21T10:56:06.922Z,2.20
2017-08-21T10:58:34.486Z,2.57
2017-08-21T11:01:02.024Z,2.40
2017-08-21T11:03:29.575Z,2.60
2017-08-21T11:05:57.105Z,2.00
2017-08-21T11:08:24.657Z,2.20
2017-08-21T11:10:52.199Z,2.30
2017-08-21T11:13:19.780Z,2.63
2017-08-21T11:15:47.313Z,2.50
2017-08-21T11:18:14.848Z,2.60
2017-08-21T11:20:42.399Z,2.60
2017-08-21T11:23:09.922Z,1.60
2017-08-21T11:25:38.246Z,2.70
2017-08-21T11:28:07.119Z,3.10
2017-08-21T11:30:36.005Z,2.30
2017-08-21T11:33:05.050Z,2.23
2017-08-21T11:35:33.730Z,1.60
2017-08-21T11:38:01.271Z,2.37
2017-08-21T11:40:28.829Z,1.95
2017-08-21T11:42:56.365Z,2.10
2017-08-21T11:45:23.920Z,2.08
2017-08-21T11:47:52.210Z,1.65
2017-08-21T11:50:19.771Z,1.98
2017-08-21T11:52:47.318Z,1.70
2017-08-21T11:55:14.860Z,2.83
2017-08-21T11:57:42.386Z,2.13
2017-08-21T12:00:11.085Z,2.00
2017-08-21T12:02:38.610Z,2.10
2017-08-21T12:05:06.163Z,2.20
2017-08-21T12:07:35.050Z,2.70
2017-08-21T12:10:02.605Z,2.33
2017-08-21T12:12:31.647Z,2.62
2017-08-21T12:15:00.538Z,2.47
2017-08-21T12:17:29.208Z,2.20
2017-08-21T12:19:56.764Z,2.30
2017-08-21T12:22:25.634Z,2.07
2017-08-21T12:24:54.518Z,2.10
2017-08-21T12:27:23.409Z,2.70
2017-08-21T12:29:52.304Z,2.77
2017-08-21T12:32:21.176Z,2.50
2017-08-21T12:34:49.868Z,2.27
2017-08-21T12:37:17.400Z,2.87
2017-08-21T12:39:44.966Z,1.97
2017-08-21T12:42:12.503Z,2.20
2017-08-21T12:44:40.037Z,2.47
2017-08-21T12:47:07.582Z,1.93
2017-08-21T12:49:35.115Z,1.97
2017-08-21T12:52:02.661Z,2.77
2017-08-21T12:54:30.196Z,2.23
2017-08-21T12:56:57.730Z,2.20
2017-08-21T12:59:25.277Z,1.80
2017-08-21T13:01:52.831Z,1.33
2017-08-21T13:04:20.355Z,1.90
2017-08-21T13:06:49.043Z,2.93
2017-08-21T13:09:45.555Z,1.80
2017-08-21T13:12:13.113Z,2.13
2017-08-21T13:14:40.653Z,2.17
2017-08-21T13:17:08.202Z,1.60
2017-08-21T13:19:35.809Z,2.03
2017-08-21T13:22:03.359Z,2.27
2017-08-21T13:24:32.027Z,2.00
2017-08-21T13:26:59.585Z,3.03
2017-08-21T13:29:27.120Z,2.10
2017-08-21T13:31:54.664Z,2.43
2017-08-21T13:34:22.195Z,2.10
2017-08-21T13:36:49.768Z,2.10
2017-08-21T13:39:17.290Z,2.07
2017-08-21T13:41:44.818Z,1.93
2017-08-21T13:44:12.359Z,2.37
2017-08-21T13:46:39.904Z,2.37
2017-08-21T13:49:07.444Z,2.70
2017-08-21T13:51:34.967Z,2.20
2017-08-21T13:54:02.525Z,2.00
2017-08-21T13:56:30.058Z,2.17
2017-08-21T13:58:57.629Z,1.77
2017-08-21T14:01:25.151Z,1.80
2017-08-21T14:03:52.708Z,2.67
2017-08-21T14:06:20.243Z,2.57
2017-08-21T14:08:47.793Z,2.60
2017-08-21T14:11:15.329Z,2.20
2017-08-21T14:13:42.883Z,2.00
2017-08-21T14:16:10.402Z,3.17
2017-08-21T14:18:37.955Z,2.80
2017-08-21T14:21:05.484Z,2.80
2017-08-21T14:23:33.059Z,2.83
2017-08-21T14:26:00.578Z,2.93
2017-08-21T14:28:28.098Z,3.40
2017-08-21T14:30:55.652Z,3.63
2017-08-21T14:33:23.189Z,3.23
2017-08-21T14:35:50.747Z,4.57
2017-08-21T14:38:18.267Z,3.77
2017-08-21T14:40:45.807Z,3.50
2017-08-21T14:43:13.335Z,3.20
2017-08-21T14:45:40.893Z,4.33
2017-08-21T14:48:08.418Z,3.20
2017-08-21T14:50:35.969Z,2.17
2017-08-21T14:53:03.500Z,2.07
2017-08-21T14:55:31.063Z,2.60
2017-08-21T14:57:58.585Z,3.17
2017-08-21T15:00:26.136Z,2.40
2017-08-21T15:02:53.685Z,2.00
2017-08-21T15:05:21.235Z,2.47
2017-08-21T15:07:48.780Z,2.70
2017-08-21T15:10:16.327Z,2.20
2017-08-21T15:12:43.855Z,2.03
2017-08-21T15:15:12.181Z,2.23
2017-08-21T15:17:39.723Z,2.30
2017-08-21T15:20:07.289Z,2.33
2017-08-21T15:22:34.828Z,2.50
2017-08-21T15:25:02.357Z,3.20
2017-08-21T15:27:29.904Z,1.67
2017-08-21T15:29:57.447Z,1.43
2017-08-21T15:32:26.520Z,1.73
2017-08-21T15:34:54.055Z,1.70
2017-08-21T15:37:21.620Z,2.90
2017-08-21T15:39:49.147Z,1.67
2017-08-21T15:42:16.686Z,1.57
2017-08-21T15:44:44.221Z,2.10
2017-08-21T15:47:11.771Z,2.10
2017-08-21T15:49:39.297Z,2.17
2017-08-21T15:52:06.910Z,2.43
2017-08-21T15:54:34.443Z,3.17
2017-08-21T15:57:03.347Z,2.73
2017-08-21T15:59:32.383Z,2.57
2017-08-21T16:01:59.936Z,2.40
2017-08-21T16:04:27.473Z,1.80
2017-08-21T16:06:55.025Z,2.90
2017-08-21T16:09:22.550Z,2.20
2017-08-21T16:11:50.127Z,2.23
2017-08-21T16:14:17.649Z,2.03
2017-08-21T16:16:45.175Z,1.60
2017-08-21T16:19:14.064Z,2.13
2017-08-21T16:21:42.942Z,2.60
2017-08-21T16:24:11.827Z,2.30
2017-08-21T16:26:40.732Z,3.37
2017-08-21T16:29:09.651Z,3.50
2017-08-21T16:31:37.579Z,2.37
2017-08-21T16:34:05.118Z,1.90
2017-08-21T16:36:32.653Z,2.33
2017-08-21T16:39:00.191Z,2.53
2017-08-21T16:41:27.728Z,3.10
2017-08-21T16:43:55.284Z,2.03
2017-08-21T16:46:22.809Z,1.87
2017-08-21T16:48:50.346Z,2.20
2017-08-21T16:51:17.876Z,1.70
2017-08-21T16:53:45.417Z,4.30
2017-08-21T16:56:12.947Z,2.20
2017-08-21T16:58:40.487Z,4.10
2017-08-21T17:01:08.024Z,2.50
2017-08-21T17:03:35.579Z,2.40
2017-08-21T17:06:03.102Z,2.10
2017-08-21T17:08:30.657Z,2.50
2017-08-21T17:10:58.233Z,2.10
2017-08-21T17:13:27.139Z,2.90
2017-08-21T17:15:56.551Z,2.20
2017-08-21T17:18:25.455Z,2.20
2017-08-21T17:20:54.325Z,2.47
2017-08-21T17:23:23.231Z,2.57
2017-08-21T17:25:52.102Z,2.20
2017-08-21T17:28:20.985Z,2.30
2017-08-21T17:30:49.866Z,2.10
2017-08-21T17:33:18.743Z,3.00
2017-08-21T17:35:47.644Z,2.87
2017-08-21T17:38:16.536Z,2.87
2017-08-21T17:40:45.440Z,3.20
2017-08-21T17:43:14.309Z,2.53
2017-08-21T17:45:43.207Z,3.70
2017-08-21T17:48:12.082Z,5.07
2017-08-21T17:50:40.976Z,4.83
2017-08-21T17:53:09.863Z,4.50
2017-08-21T17:55:38.764Z,3.80
2017-08-21T17:58:07.647Z,4.03
2017-08-21T18:00:36.538Z,3.43
2017-08-21T18:03:05.410Z,3.03
2017-08-21T18:05:34.322Z,3.13
2017-08-21T18:08:03.210Z,2.33
2017-08-21T18:10:32.098Z,2.47
2017-08-21T18:13:00.976Z,2.00
2017-08-21T18:15:29.866Z,2.50
2017-08-21T18:17:58.765Z,2.50
2017-08-21T18:20:27.662Z,3.27
2017-08-21T18:22:56.549Z,2.87
2017-08-21T18:25:25.448Z,2.90
2017-08-21T18:27:54.332Z,2.60
2017-08-21T18:30:23.228Z,3.83
2017-08-21T18:32:52.094Z,3.60
2017-08-21T18:35:20.984Z,4.27
2017-08-21T18:37:49.876Z,4.60
2017-08-21T18:40:18.786Z,2.60
2017-08-21T18:42:47.654Z,3.47
2017-08-21T18:45:16.527Z,4.00
2017-08-21T18:47:45.424Z,3.37
2017-08-21T18:50:14.293Z,3.73
2017-08-21T18:52:43.182Z,3.07
2017-08-21T18:55:12.063Z,3.23
2017-08-21T18:57:40.949Z,3.20
2017-08-21T19:00:09.831Z,3.17
2017-08-21T19:02:38.731Z,3.57
2017-08-21T19:05:07.612Z,2.80
2017-08-21T19:07:36.576Z,3.00
2017-08-21T19:10:05.460Z,3.60
2017-08-21T19:12:34.365Z,3.50
2017-08-21T19:15:03.246Z,3.20
2017-08-21T19:17:32.142Z,3.23
2017-08-21T19:20:01.030Z,3.37
2017-08-21T19:22:29.932Z,3.47
2017-08-21T19:24:58.801Z,3.20
2017-08-21T19:27:27.699Z,3.00
2017-08-21T19:29:56.584Z,4.07
2017-08-21T19:32:25.483Z,3.87
2017-08-21T19:34:54.364Z,4.60
2017-08-21T19:37:23.287Z,3.13
2017-08-21T19:39:52.153Z,3.00
2017-08-21T19:42:21.017Z,3.50
2017-08-21T19:44:49.912Z,4.50
2017-08-21T19:47:18.787Z,4.43
2017-08-21T19:49:47.693Z,3.20
2017-08-21T19:52:16.575Z,3.30
2017-08-21T19:54:45.462Z,2.90
2017-08-21T19:57:14.347Z,3.30
2017-08-21T19:59:43.232Z,3.60
2017-08-21T20:02:12.123Z,4.37
2017-08-21T20:04:41.024Z,3.90
2017-08-21T20:07:09.900Z,4.00
2017-08-21T20:09:38.806Z,3.87
2017-08-21T20:12:07.691Z,3.83
2017-08-21T20:14:36.582Z,3.30
2017-08-21T20:17:05.454Z,5.10
2017-08-21T20:19:34.356Z,4.80
2017-08-21T20:22:03.226Z,4.03
2017-08-21T20:24:32.108Z,4.70
2017-08-21T20:27:00.987Z,4.40
2017-08-21T20:29:29.887Z,4.20
2017-08-21T20:31:58.758Z,3.40
2017-08-21T20:34:27.642Z,4.03
2017-08-21T20:36:56.528Z,5.33
2017-08-21T20:39:25.427Z,4.60
2017-08-21T20:41:54.295Z,5.60
2017-08-21T20:44:23.200Z,4.73
2017-08-21T20:46:52.065Z,3.70
2017-08-21T20:49:20.949Z,4.10
2017-08-21T20:51:49.829Z,4.47
2017-08-21T20:54:18.731Z,4.53
2017-08-21T20:56:47.601Z,3.63
2017-08-21T20:59:16.496Z,4.20
2017-08-21T21:01:45.370Z,4.10
2017-08-21T21:04:14.292Z,4.97
2017-08-21T21:06:43.158Z,3.40
2017-08-21T21:09:12.045Z,4.40
2017-08-21T21:11:40.930Z,4.13
2017-08-21T21:14:09.840Z,4.00
2017-08-21T21:16:38.733Z,4.57
2017-08-21T21:19:07.609Z,4.33
2017-08-21T21:21:36.502Z,4.40
2017-08-21T21:24:05.365Z,4.00
2017-08-21T21:26:34.262Z,4.20
2017-08-21T21:29:03.130Z,4.97
2017-08-21T21:31:32.024Z,3.70
2017-08-21T21:34:00.904Z,4.30
2017-08-21T21:36:29.789Z,4.90
2017-08-21T21:38:58.658Z,5.13
2017-08-21T21:41:27.556Z,4.20
2017-08-21T21:43:57.166Z,4.10
2017-08-21T21:46:26.073Z,3.83
2017-08-21T21:48:54.939Z,3.90
2017-08-21T21:51:23.823Z,4.70
2017-08-21T21:53:52.699Z,3.67
2017-08-21T21:56:21.620Z,4.17
2017-08-21T21:58:50.508Z,3.53
2017-08-21T22:01:19.390Z,4.77
2017-08-21T22:03:48.275Z,4.10
2017-08-21T22:06:17.160Z,6.00
2017-08-21T22:08:46.069Z,4.70
2017-08-21T22:11:14.942Z,4.57
2017-08-21T22:13:43.839Z,4.60
2017-08-21T22:16:12.731Z,5.10
2017-08-21T22:18:41.631Z,3.40
2017-08-21T22:21:10.530Z,3.67
2017-08-21T22:23:39.426Z,3.37
2017-08-21T22:26:08.294Z,3.20
2017-08-21T22:28:37.203Z,3.83
2017-08-21T22:31:06.073Z,3.23
2017-08-21T22:33:34.966Z,3.00
2017-08-21T22:36:03.847Z,3.13
2017-08-21T22:38:32.729Z,2.87
2017-08-21T22:41:01.597Z,3.53
2017-08-21T22:43:30.491Z,3.40
2017-08-21T22:45:59.370Z,3.10
2017-08-21T22:48:28.283Z,3.80
2017-08-21T22:50:57.149Z,3.53
2017-08-21T22:53:26.053Z,3.50
2017-08-21T22:55:54.918Z,2.80
2017-08-21T22:58:23.795Z,3.83
2017-08-21T23:00:52.700Z,3.00
2017-08-21T23:03:21.586Z,4.20
2017-08-21T23:05:50.490Z,3.23
2017-08-21T23:08:19.368Z,2.90
2017-08-21T23:10:48.251Z,3.50
2017-08-21T23:13:17.138Z,2.87
2017-08-21T23:15:46.010Z,3.50
2017-08-21T23:18:14.922Z,3.00
2017-08-21T23:20:43.789Z,3.10
2017-08-21T23:23:12.663Z,3.07
2017-08-21T23:25:41.554Z,2.63
2017-08-21T23:28:10.440Z,2.57
2017-08-21T23:30:39.329Z,3.10
2017-08-21T23:33:08.193Z,2.63
2017-08-21T23:35:37.095Z,2.60
2017-08-21T23:38:05.973Z,3.33
2017-08-21T23:40:34.876Z,3.20
2017-08-21T23:43:03.760Z,3.07
2017-08-21T23:45:32.666Z,3.10
2017-08-21T23:48:01.548Z,2.77
2017-08-21T23:50:30.428Z,3.20
2017-08-21T23:52:59.323Z,3.07
2017-08-21T23:55:28.207Z,3.70
2017-08-21T23:57:57.112Z,3.40
